Time;durP1;ratioP1;P1;durP2;ratioP2;P2;SDS_P1;SDS_P2;PMS_P1;PMS_P2;Temp;Humidity;BMP_temperature;BMP_pressure;BME280_temperature;BME280_humidity;BME280_pressure;Samples;Min_cycle;Max_cycle;Signal;HPM_P1;HPM_P2
2023/01/25 00:00:35;;;;;;;33.35;16.98;;;;;;;;;;5039432;28;20399;-77
2023/01/25 00:03:00;;;;;;;35.15;17.55;;;;;;;;;;5030110;28;20041;-77
2023/01/25 00:05:25;;;;;;;32.45;16.17;;;;;;;;;;5029860;28;20041;-77
2023/01/25 00:07:51;;;;;;;29.70;16.17;;;;;;;;;;5031222;28;20057;-77
2023/01/25 00:10:17;;;;;;;34.67;16.83;;;;;;;;;;5031297;28;20036;-77
2023/01/25 00:12:42;;;;;;;34.50;16.80;;;;;;;;;;5031123;28;20045;-77
2023/01/25 00:15:08;;;;;;;33.70;16.00;;;;;;;;;;5046235;28;20061;-77
2023/01/25 00:17:33;;;;;;;34.85;16.38;;;;;;;;;;5030838;28;20096;-78
2023/01/25 00:19:58;;;;;;;31.98;16.67;;;;;;;;;;5029740;28;20033;-78
2023/01/25 00:22:24;;;;;;;33.00;15.43;;;;;;;;;;5029839;28;20479;-78
2023/01/25 00:24:49;;;;;;;35.70;17.58;;;;;;;;;;5031440;28;21006;-77
2023/01/25 00:27:15;;;;;;;32.10;16.77;;;;;;;;;;5030595;28;20177;-78
2023/01/25 00:29:40;;;;;;;34.83;17.58;;;;;;;;;;5046425;28;20032;-78
2023/01/25 00:32:06;;;;;;;33.00;16.60;;;;;;;;;;5045814;28;20530;-78
2023/01/25 00:34:44;;;;;;;32.15;17.35;;;;;;;;;;5030783;28;20038;-78
2023/01/25 00:37:29;;;;;;;33.65;17.45;;;;;;;;;;5029311;28;20547;-78
2023/01/25 00:39:56;;;;;;;33.35;16.10;;;;;;;;;;5045631;28;20550;-78
2023/01/25 00:42:21;;;;;;;30.73;15.52;;;;;;;;;;5029236;28;20124;-77
2023/01/25 00:44:47;;;;;;;33.75;15.95;;;;;;;;;;5022673;28;20043;-77
2023/01/25 00:47:12;;;;;;;34.63;15.77;;;;;;;;;;5030500;28;20040;-78
2023/01/25 00:49:38;;;;;;;33.40;16.42;;;;;;;;;;5026518;28;20515;-78
2023/01/25 00:52:03;;;;;;;31.90;16.45;;;;;;;;;;5030223;28;20063;-78
2023/01/25 00:54:29;;;;;;;35.58;18.55;;;;;;;;;;5021359;28;20499;-77
2023/01/25 00:56:55;;;;;;;33.80;16.83;;;;;;;;;;5031719;28;20096;-77
2023/01/25 00:59:20;;;;;;;;;;;;;;;;;;5030825;28;20052;-78
2023/01/25 01:01:46;;;;;;;36.15;17.25;;;;;;;;;;5030269;28;19909;-78
2023/01/25 01:04:12;;;;;;;35.42;16.83;;;;;;;;;;5012731;28;20547;-78
2023/01/25 01:06:40;;;;;;;33.15;16.00;;;;;;;;;;5010366;28;20501;-77
2023/01/25 01:09:05;;;;;;;33.58;17.02;;;;;;;;;;5009258;28;20123;-78
2023/01/25 01:11:31;;;;;;;36.47;16.90;;;;;;;;;;5028187;28;20083;-77
2023/01/25 01:13:57;;;;;;;32.22;16.35;;;;;;;;;;5012399;28;20064;-78
2023/01/25 01:16:22;;;;;;;34.58;17.30;;;;;;;;;;5030329;28;20117;-78
2023/01/25 01:18:50;;;;;;;36.60;17.33;;;;;;;;;;5028937;28;20506;-77
2023/01/25 01:21:16;;;;;;;34.00;17.00;;;;;;;;;;5028751;28;20104;-78
2023/01/25 01:23:42;;;;;;;32.22;15.88;;;;;;;;;;5037443;28;20036;-78
2023/01/25 01:26:08;;;;;;;34.90;16.48;;;;;;;;;;5028821;28;20044;-79
2023/01/25 01:28:34;;;;;;;33.20;15.85;;;;;;;;;;5028804;28;20037;-78
2023/01/25 01:31:02;;;;;;;33.00;16.48;;;;;;;;;;5027239;28;20144;-77
2023/01/25 01:33:32;;;;;;;34.03;16.70;;;;;;;;;;5023983;28;20065;-78
2023/01/25 01:35:57;;;;;;;32.65;16.38;;;;;;;;;;5029368;28;20068;-78
2023/01/25 01:38:23;;;;;;;32.72;16.00;;;;;;;;;;5034719;28;20064;-78
2023/01/25 01:40:48;;;;;;;36.10;16.88;;;;;;;;;;5045300;28;20036;-78
2023/01/25 01:43:21;;;;;;;35.72;17.15;;;;;;;;;;5018453;28;20042;-78
2023/01/25 01:45:46;;;;;;;31.50;16.27;;;;;;;;;;5025635;28;20087;-78
2023/01/25 01:48:14;;;;;;;33.38;16.83;;;;;;;;;;5028649;28;20035;-78
2023/01/25 01:50:40;;;;;;;33.28;17.45;;;;;;;;;;5042116;28;20087;-78
2023/01/25 01:53:06;;;;;;;31.98;16.42;;;;;;;;;;5025230;28;20488;-78
2023/01/25 01:55:32;;;;;;;34.20;16.92;;;;;;;;;;5044876;28;20117;-78
2023/01/25 01:57:57;;;;;;;30.80;16.58;;;;;;;;;;5019886;28;20028;-78
2023/01/25 02:00:27;;;;;;;34.17;16.50;;;;;;;;;;5023204;28;20037;-78
2023/01/25 02:02:52;;;;;;;33.00;16.13;;;;;;;;;;5011888;28;20136;-78
2023/01/25 02:05:19;;;;;;;31.70;16.65;;;;;;;;;;5045246;28;20125;-78
2023/01/25 02:07:44;;;;;;;28.95;15.60;;;;;;;;;;5028429;28;20040;-78
2023/01/25 02:10:10;;;;;;;31.80;16.50;;;;;;;;;;5044988;28;20034;-78
2023/01/25 02:12:36;;;;;;;31.77;17.08;;;;;;;;;;5011902;28;20044;-77
2023/01/25 02:15:01;;;;;;;31.23;15.38;;;;;;;;;;5029323;28;20520;-78
2023/01/25 02:17:31;;;;;;;32.72;17.00;;;;;;;;;;5028236;28;20033;-78
2023/01/25 02:19:57;;;;;;;30.52;15.75;;;;;;;;;;5029313;28;20026;-77
2023/01/25 02:22:23;;;;;;;;;;;;;;;;;;5029700;28;20497;-78
2023/01/25 02:24:50;;;;;;;34.38;17.25;;;;;;;;;;5031886;28;19960;-78
2023/01/25 02:27:15;;;;;;;31.83;16.40;;;;;;;;;;5015100;28;20376;-77
2023/01/25 02:29:41;;;;;;;32.50;16.08;;;;;;;;;;5033224;28;20033;-78
2023/01/25 02:32:06;;;;;;;32.70;15.77;;;;;;;;;;5035924;28;20033;-78
2023/01/25 02:34:32;;;;;;;27.25;14.75;;;;;;;;;;5033142;28;20081;-78
2023/01/25 02:36:57;;;;;;;35.80;17.27;;;;;;;;;;5031465;28;20022;-78
2023/01/25 02:39:25;;;;;;;32.38;16.23;;;;;;;;;;5012338;28;20044;-78
2023/01/25 02:41:51;;;;;;;34.58;16.58;;;;;;;;;;5034832;28;20029;-78
2023/01/25 02:44:21;;;;;;;32.72;15.90;;;;;;;;;;5040562;28;20040;-78
2023/01/25 02:46:49;;;;;;;29.88;15.55;;;;;;;;;;5010009;28;20092;-77
2023/01/25 02:49:15;;;;;;;29.85;15.63;;;;;;;;;;5043464;28;20037;-78
2023/01/25 02:51:41;;;;;;;30.05;15.88;;;;;;;;;;5036367;28;20029;-76
2023/01/25 02:54:08;;;;;;;31.42;16.25;;;;;;;;;;5012247;28;20069;-77
2023/01/25 02:56:34;;;;;;;32.42;17.15;;;;;;;;;;5031365;28;20021;-77
2023/01/25 02:59:04;;;;;;;34.97;17.08;;;;;;;;;;5014355;28;20036;-77
2023/01/25 03:01:32;;;;;;;33.22;15.48;;;;;;;;;;5032596;28;20049;-77
2023/01/25 03:03:57;;;;;;;;;;;;;;;;;;5015022;28;20037;-78
2023/01/25 03:06:23;;;;;;;32.75;15.98;;;;;;;;;;5031377;28;20394;-78
2023/01/25 03:08:49;;;;;;;33.58;16.42;;;;;;;;;;5032280;28;20082;-78
2023/01/25 03:11:15;;;;;;;35.78;16.95;;;;;;;;;;5014616;28;20052;-78
2023/01/25 03:13:41;;;;;;;;;;;;;;;;;;5031239;28;20447;-78
2023/01/25 03:16:08;;;;;;;31.23;15.55;;;;;;;;;;5032439;28;20311;-78
2023/01/25 03:18:34;;;;;;;33.75;16.40;;;;;;;;;;5014226;28;20032;-78
2023/01/25 03:21:04;;;;;;;35.20;16.50;;;;;;;;;;5031031;28;20468;-78
2023/01/25 03:23:29;;;;;;;32.95;16.45;;;;;;;;;;5030763;28;20041;-78
2023/01/25 03:25:55;;;;;;;36.80;17.40;;;;;;;;;;5032075;28;20032;-78
2023/01/25 03:28:20;;;;;;;30.55;16.20;;;;;;;;;;5014157;28;20416;-77
2023/01/25 03:30:51;;;;;;;30.83;15.75;;;;;;;;;;5032039;28;20037;-77
2023/01/25 03:33:16;;;;;;;29.30;15.50;;;;;;;;;;5030086;28;20083;-77
2023/01/25 03:35:42;;;;;;;31.75;16.05;;;;;;;;;;5030705;28;20017;-77
2023/01/25 03:38:07;;;;;;;33.40;15.63;;;;;;;;;;5030032;28;20037;-77
2023/01/25 03:40:33;;;;;;;31.23;16.42;;;;;;;;;;5013953;28;20442;-78
2023/01/25 03:42:59;;;;;;;34.55;17.35;;;;;;;;;;5030265;28;20156;-77
2023/01/25 03:45:24;;;;;;;35.85;16.35;;;;;;;;;;5028226;28;20021;-77
2023/01/25 03:47:50;;;;;;;32.95;16.77;;;;;;;;;;5030525;28;20041;-78
2023/01/25 03:50:15;;;;;;;35.95;17.15;;;;;;;;;;5013779;28;20029;-78
2023/01/25 03:52:45;;;;;;;33.08;16.17;;;;;;;;;;5046771;28;20065;-78
2023/01/25 03:55:10;;;;;;;32.90;16.95;;;;;;;;;;5030387;28;20037;-78
2023/01/25 03:57:39;;;;;;;33.40;16.45;;;;;;;;;;5031239;28;20033;-77
2023/01/25 04:00:05;;;;;;;31.58;16.50;;;;;;;;;;5029787;28;20079;-78
2023/01/25 04:02:40;;;;;;;30.70;16.35;;;;;;;;;;5026055;28;20191;-78
2023/01/25 04:05:08;;;;;;;31.05;15.77;;;;;;;;;;5029893;28;20155;-78
2023/01/25 04:07:34;;;;;;;30.20;16.35;;;;;;;;;;5046186;28;20025;-78
2023/01/25 04:10:02;;;;;;;34.60;17.10;;;;;;;;;;5030070;28;20535;-78
2023/01/25 04:12:28;;;;;;;27.92;15.57;;;;;;;;;;5030562;28;20030;-78
2023/01/25 04:14:54;;;;;;;36.95;17.48;;;;;;;;;;5013437;28;20500;-78
2023/01/25 04:17:21;;;;;;;35.17;17.83;;;;;;;;;;5030716;28;20049;-79
2023/01/25 04:19:50;;;;;;;29.33;15.52;;;;;;;;;;5043441;28;20124;-77
2023/01/25 04:22:19;;;;;;;30.73;16.35;;;;;;;;;;5021886;28;20120;-79
2023/01/25 04:24:46;;;;;;;36.85;15.98;;;;;;;;;;5010103;28;20040;-78
2023/01/25 04:27:12;;;;;;;33.28;16.23;;;;;;;;;;5022817;28;20029;-78
2023/01/25 04:29:44;;;;;;;28.70;15.32;;;;;;;;;;5030571;28;20037;-78
2023/01/25 04:32:15;;;;;;;31.35;16.10;;;;;;;;;;5045218;28;20029;-78
2023/01/25 04:34:41;;;;;;;;;;;;;;;;;;5029859;28;20060;-78
2023/01/25 04:37:12;;;;;;;31.08;15.13;;;;;;;;;;5046524;28;19913;-78
2023/01/25 04:39:48;;;;;;;34.05;15.90;;;;;;;;;;5035600;28;20030;-78
2023/01/25 04:42:13;;;;;;;32.85;16.08;;;;;;;;;;5008743;28;20525;-77
2023/01/25 04:44:39;;;;;;;30.30;15.48;;;;;;;;;;5035470;28;20496;-77
2023/01/25 04:47:05;;;;;;;32.42;16.60;;;;;;;;;;5045752;28;20531;-78
2023/01/25 04:49:30;;;;;;;31.83;16.23;;;;;;;;;;5017922;28;20072;-78
2023/01/25 04:51:56;;;;;;;33.70;17.10;;;;;;;;;;5045589;28;20033;-78
2023/01/25 04:54:22;;;;;;;32.70;16.95;;;;;;;;;;5010058;28;20025;-78
2023/01/25 04:56:48;;;;;;;30.42;15.32;;;;;;;;;;5029246;28;20021;-78
2023/01/25 04:59:13;;;;;;;29.20;16.13;;;;;;;;;;5031137;28;20140;-79
2023/01/25 05:01:39;;;;;;;29.42;15.13;;;;;;;;;;5020075;28;20025;-79
2023/01/25 05:04:05;;;;;;;35.03;16.35;;;;;;;;;;5028878;28;20124;-79
2023/01/25 05:06:43;;;;;;;32.20;16.75;;;;;;;;;;5012608;28;20061;-79
2023/01/25 05:09:09;;;;;;;31.55;16.52;;;;;;;;;;5009999;28;20068;-79
2023/01/25 05:11:34;;;;;;;36.88;16.95;;;;;;;;;;5015682;28;20480;-79
2023/01/25 05:14:05;;;;;;;33.85;16.80;;;;;;;;;;5021338;28;20441;-79
2023/01/25 05:16:32;;;;;;;30.05;15.90;;;;;;;;;;5009652;28;20072;-78
2023/01/25 05:18:58;;;;;;;;;;;;;;;;;;5024454;28;20026;-78
2023/01/25 05:24:40;;;;;;;32.92;17.10;;;;;;;;;;5015775;28;20052;-78
2023/01/25 05:27:08;;;;;;;32.15;16.60;;;;;;;;;;5012213;28;20040;-78
2023/01/25 05:29:57;;;;;;;27.77;15.55;;;;;;;;;;5030044;28;20043;-79
2023/01/25 05:32:47;;;;;;;29.67;15.50;;;;;;;;;;5028488;28;20033;-78
2023/01/25 05:35:13;;;;;;;35.20;16.55;;;;;;;;;;5045029;28;20033;-79
2023/01/25 05:37:39;;;;;;;31.50;16.40;;;;;;;;;;5041881;28;20037;-79
2023/01/25 05:40:29;;;;;;;28.88;15.32;;;;;;;;;;5031462;28;20117;-79
2023/01/25 05:43:01;;;;;;;32.10;16.15;;;;;;;;;;5011917;28;20575;-79
2023/01/25 05:45:29;;;;;;;36.65;17.35;;;;;;;;;;5025635;28;20467;-79
2023/01/25 05:47:54;;;;;;;32.25;16.15;;;;;;;;;;5008942;28;20209;-77
2023/01/25 05:50:20;;;;;;;30.85;15.82;;;;;;;;;;5039859;28;20033;-78
2023/01/25 05:52:56;;;;;;;32.28;16.33;;;;;;;;;;5028314;28;20029;-78
2023/01/25 05:55:22;;;;;;;34.47;16.48;;;;;;;;;;5024092;28;20036;-79
2023/01/25 05:57:50;;;;;;;32.83;15.63;;;;;;;;;;5039269;28;20444;-79
2023/01/25 06:00:16;;;;;;;30.92;15.90;;;;;;;;;;5031824;28;20037;-78
2023/01/25 06:02:42;;;;;;;32.90;15.70;;;;;;;;;;5032125;28;20112;-79
2023/01/25 06:05:13;;;;;;;32.75;16.67;;;;;;;;;;5031666;28;20092;-80
2023/01/25 06:07:38;;;;;;;35.05;17.02;;;;;;;;;;5033465;28;20091;-79
2023/01/25 06:10:04;;;;;;;33.60;17.23;;;;;;;;;;5031980;28;20492;-81
2023/01/25 06:12:30;;;;;;;31.45;16.02;;;;;;;;;;5033275;28;20124;-78
2023/01/25 06:14:57;;;;;;;34.35;17.17;;;;;;;;;;5015158;28;20081;-79
2023/01/25 06:17:22;;;;;;;29.08;15.68;;;;;;;;;;5031730;28;20084;-80
2023/01/25 06:20:26;;;;;;;27.45;15.63;;;;;;;;;;5009530;28;20098;-79
2023/01/25 06:23:03;;;;;;;38.92;18.10;;;;;;;;;;4996438;28;20037;-79
2023/01/25 06:25:29;;;;;;;34.30;16.45;;;;;;;;;;4998545;28;20041;-78
2023/01/25 06:27:54;;;;;;;33.75;16.55;;;;;;;;;;5032789;28;20065;-79
2023/01/25 06:30:19;;;;;;;31.13;16.23;;;;;;;;;;5031350;28;20045;-78
2023/01/25 06:32:45;;;;;;;37.17;17.17;;;;;;;;;;5032751;28;20036;-79
2023/01/25 06:35:10;;;;;;;35.40;17.77;;;;;;;;;;5031612;28;20038;-80
2023/01/25 06:37:36;;;;;;;35.15;17.83;;;;;;;;;;5030087;28;20026;-78
2023/01/25 06:40:02;;;;;;;30.80;15.82;;;;;;;;;;5028445;28;20095;-78
2023/01/25 06:42:27;;;;;;;36.67;17.27;;;;;;;;;;5026793;28;20063;-80
2023/01/25 06:44:52;;;;;;;34.15;17.48;;;;;;;;;;5026566;28;20063;-80
2023/01/25 06:47:18;;;;;;;37.25;17.48;;;;;;;;;;5032290;28;20171;-79
2023/01/25 06:49:43;;;;;;;33.22;16.85;;;;;;;;;;5031117;28;20124;-79
2023/01/25 06:52:09;;;;;;;32.40;16.15;;;;;;;;;;5032099;28;20129;-79
2023/01/25 06:54:34;;;;;;;34.80;17.48;;;;;;;;;;5032660;28;20041;-79
2023/01/25 06:57:00;;;;;;;37.28;16.65;;;;;;;;;;5038812;28;20096;-79
2023/01/25 06:59:25;;;;;;;33.35;16.23;;;;;;;;;;5031081;28;20057;-77
2023/01/25 07:01:51;;;;;;;31.65;16.65;;;;;;;;;;5021608;28;20522;-80
2023/01/25 07:04:16;;;;;;;37.03;17.50;;;;;;;;;;5041411;28;20554;-78
2023/01/25 07:06:42;;;;;;;34.20;16.48;;;;;;;;;;5031944;28;20095;-79
2023/01/25 07:09:08;;;;;;;40.20;17.83;;;;;;;;;;5030709;28;20491;-78
2023/01/25 07:11:34;;;;;;;36.25;18.33;;;;;;;;;;5054183;28;20029;-77
2023/01/25 07:13:59;;;;;;;32.65;16.77;;;;;;;;;;5032118;28;20555;-78
2023/01/25 07:16:25;;;;;;;38.08;18.77;;;;;;;;;;5018252;28;20034;-78
2023/01/25 07:18:50;;;;;;;34.25;17.55;;;;;;;;;;5014325;28;20029;-78
2023/01/25 07:21:17;;;;;;;37.42;16.58;;;;;;;;;;5030418;28;20104;-79
2023/01/25 07:23:42;;;;;;;36.10;17.38;;;;;;;;;;5031825;28;20041;-79
2023/01/25 07:26:18;;;;;;;36.58;18.42;;;;;;;;;;5031571;28;20033;-78
2023/01/25 07:28:44;;;;;;;33.45;17.15;;;;;;;;;;5034988;28;20040;-79
2023/01/25 07:31:09;;;;;;;36.60;17.63;;;;;;;;;;5031928;28;20033;-79
2023/01/25 07:33:35;;;;;;;37.60;17.58;;;;;;;;;;5035713;28;20955;-79
2023/01/25 07:36:00;;;;;;;36.05;18.98;;;;;;;;;;5031855;28;20056;-79
2023/01/25 07:38:26;;;;;;;37.00;17.92;;;;;;;;;;5031484;28;20037;-78
2023/01/25 07:40:52;;;;;;;41.30;17.48;;;;;;;;;;5046869;28;20049;-80
2023/01/25 07:43:18;;;;;;;38.25;18.55;;;;;;;;;;5029432;28;20044;-79
2023/01/25 07:45:47;;;;;;;38.78;19.45;;;;;;;;;;5027354;28;20394;-78
2023/01/25 07:48:13;;;;;;;35.22;17.83;;;;;;;;;;5030171;28;20041;-79
2023/01/25 07:50:40;;;;;;;41.10;18.00;;;;;;;;;;5022534;28;20025;-79
2023/01/25 07:53:06;;;;;;;36.35;16.80;;;;;;;;;;5038721;28;20045;-79
2023/01/25 07:55:31;;;;;;;37.45;18.02;;;;;;;;;;5047187;28;20152;-79
2023/01/25 07:57:57;;;;;;;34.33;17.10;;;;;;;;;;5037258;28;20025;-78
2023/01/25 08:00:22;;;;;;;37.35;17.20;;;;;;;;;;5031097;28;20029;-79
2023/01/25 08:02:50;;;;;;;38.85;18.40;;;;;;;;;;5037296;28;20491;-78
2023/01/25 08:05:16;;;;;;;38.40;17.55;;;;;;;;;;5024956;28;20540;-79
2023/01/25 08:07:41;;;;;;;37.00;16.23;;;;;;;;;;5031061;28;20128;-79
2023/01/25 08:10:07;;;;;;;33.08;17.08;;;;;;;;;;5046205;28;20124;-79
2023/01/25 08:12:33;;;;;;;37.40;18.30;;;;;;;;;;5029679;28;20128;-79
2023/01/25 08:14:59;;;;;;;;;;;;;;;;;;5013652;28;20111;-78
2023/01/25 08:17:30;;;;;;;35.15;16.92;;;;;;;;;;5030807;28;20326;-79
2023/01/25 08:19:59;;;;;;;36.72;18.52;;;;;;;;;;5030203;28;20029;-79
2023/01/25 08:22:24;;;;;;;37.75;18.23;;;;;;;;;;5017560;28;20499;-79
2023/01/25 08:24:50;;;;;;;37.83;18.00;;;;;;;;;;5030746;28;20033;-78
2023/01/25 08:27:15;;;;;;;36.28;18.08;;;;;;;;;;5012603;28;20048;-78
2023/01/25 08:29:41;;;;;;;40.38;17.98;;;;;;;;;;5023557;28;20029;-78
2023/01/25 08:32:06;;;;;;;39.17;17.98;;;;;;;;;;5012485;28;20032;-78
2023/01/25 08:34:32;;;;;;;37.35;17.45;;;;;;;;;;5029586;28;20084;-78
2023/01/25 08:36:58;;;;;;;36.08;17.50;;;;;;;;;;5033780;28;20032;-78
2023/01/25 08:39:23;;;;;;;39.25;17.52;;;;;;;;;;5030928;28;20381;-81
2023/01/25 08:41:49;;;;;;;40.92;18.33;;;;;;;;;;5046438;28;20029;-79
2023/01/25 08:44:14;;;;;;;38.65;17.40;;;;;;;;;;5026142;28;20113;-79
2023/01/25 08:46:40;;;;;;;37.30;18.42;;;;;;;;;;5030077;28;20396;-79
2023/01/25 08:49:06;;;;;;;33.72;16.05;;;;;;;;;;5045614;28;20040;-78
2023/01/25 08:51:31;;;;;;;;;;;;;;;;;;5030618;28;20606;-79
2023/01/25 08:54:00;;;;;;;38.75;17.27;;;;;;;;;;5029109;28;20035;-79
2023/01/25 08:56:26;;;;;;;38.55;19.02;;;;;;;;;;5029736;28;20044;-78
2023/01/25 08:58:51;;;;;;;46.05;18.45;;;;;;;;;;5037223;28;20021;-79
2023/01/25 09:01:17;;;;;;;38.00;17.60;;;;;;;;;;5035997;28;20021;-79
2023/01/25 09:03:43;;;;;;;;;;;;;;;;;;5029621;28;20086;-79
2023/01/25 09:06:09;;;;;;;37.35;17.50;;;;;;;;;;5028952;28;20007;-78
2023/01/25 09:08:34;;;;;;;38.20;18.10;;;;;;;;;;5025371;28;20042;-80
2023/01/25 09:11:00;;;;;;;35.08;17.15;;;;;;;;;;5035530;28;20045;-78
2023/01/25 09:13:26;;;;;;;38.42;17.38;;;;;;;;;;5028738;28;20064;-80
2023/01/25 09:15:51;;;;;;;35.67;16.58;;;;;;;;;;5035960;28;20037;-79
2023/01/25 09:18:17;;;;;;;36.47;17.90;;;;;;;;;;5045233;28;20527;-78
2023/01/25 09:20:42;;;;;;;40.35;18.30;;;;;;;;;;5028697;28;20033;-78
2023/01/25 09:23:08;;;;;;;33.25;17.13;;;;;;;;;;5029987;28;20040;-78
2023/01/25 09:25:34;;;;;;;34.28;17.17;;;;;;;;;;5035119;28;20522;-78
2023/01/25 09:28:00;;;;;;;38.33;19.13;;;;;;;;;;5030001;28;20489;-79
2023/01/25 09:30:25;;;;;;;38.67;17.00;;;;;;;;;;5048756;28;20035;-79
2023/01/25 09:32:54;;;;;;;37.50;17.52;;;;;;;;;;5032314;28;20043;-79
2023/01/25 09:35:19;;;;;;;40.40;18.38;;;;;;;;;;5033714;28;20025;-79
2023/01/25 09:37:48;;;;;;;33.60;17.23;;;;;;;;;;5032776;28;20036;-79
2023/01/25 09:40:18;;;;;;;35.20;17.38;;;;;;;;;;5032236;28;20040;-79
2023/01/25 09:42:50;;;;;;;33.47;16.27;;;;;;;;;;5037327;28;20621;-79
2023/01/25 09:45:15;;;;;;;39.08;18.08;;;;;;;;;;5031556;28;20041;-79
2023/01/25 09:47:43;;;;;;;35.25;16.70;;;;;;;;;;5036682;28;20038;-79
2023/01/25 09:50:21;;;;;;;36.47;16.42;;;;;;;;;;5015183;28;20037;-78
2023/01/25 09:52:52;;;;;;;30.08;16.15;;;;;;;;;;5037198;28;20444;-78
2023/01/25 09:55:19;;;;;;;29.25;15.57;;;;;;;;;;5033932;28;20037;-78
2023/01/25 09:57:44;;;;;;;32.92;16.13;;;;;;;;;;5033259;28;20028;-78
2023/01/25 10:00:17;;;;;;;37.30;17.00;;;;;;;;;;5032079;28;20124;-78
2023/01/25 10:02:46;;;;;;;32.38;17.02;;;;;;;;;;5032015;28;20065;-79
2023/01/25 10:05:18;;;;;;;33.67;17.27;;;;;;;;;;5032751;28;20029;-79
2023/01/25 10:07:43;;;;;;;34.25;16.85;;;;;;;;;;4996802;28;20576;-79
2023/01/25 10:10:29;;;;;;;32.38;16.55;;;;;;;;;;5048657;28;20116;-79
2023/01/25 10:12:55;;;;;;;32.97;16.40;;;;;;;;;;5007846;28;20041;-79
2023/01/25 10:15:21;;;;;;;38.38;18.10;;;;;;;;;;5037570;28;20061;-79
2023/01/25 10:18:10;;;;;;;33.65;16.17;;;;;;;;;;5017433;28;20048;-80
2023/01/25 10:20:51;;;;;;;29.73;15.57;;;;;;;;;;5025849;28;20037;-79
2023/01/25 10:23:42;;;;;;;27.92;15.27;;;;;;;;;;5049705;28;20096;-79
2023/01/25 10:26:18;;;;;;;35.30;15.95;;;;;;;;;;5031434;28;20041;-79
2023/01/25 10:28:48;;;;;;;39.00;17.23;;;;;;;;;;5036020;28;20072;-79
2023/01/25 10:31:26;;;;;;;30.83;15.73;;;;;;;;;;5048195;28;20503;-79
2023/01/25 10:33:53;;;;;;;31.23;15.02;;;;;;;;;;5031543;28;20496;-79
2023/01/25 10:36:20;;;;;;;29.50;14.07;;;;;;;;;;5031577;28;20025;-79
2023/01/25 10:38:46;;;;;;;34.10;16.80;;;;;;;;;;5031270;28;20037;-78
2023/01/25 10:41:11;;;;;;;28.20;15.55;;;;;;;;;;5032279;28;20037;-78
2023/01/25 10:43:37;;;;;;;31.67;15.23;;;;;;;;;;5031280;28;20393;-79
2023/01/25 10:46:02;;;;;;;30.38;14.40;;;;;;;;;;5036612;28;20029;-80
2023/01/25 10:48:29;;;;;;;28.38;14.50;;;;;;;;;;5043884;28;20039;-79
2023/01/25 10:50:56;;;;;;;27.02;14.73;;;;;;;;;;5030829;28;20128;-78
2023/01/25 10:53:27;;;;;;;30.20;15.07;;;;;;;;;;5031742;28;20037;-79
2023/01/25 10:56:05;;;;;;;29.75;15.45;;;;;;;;;;5032444;28;20140;-79
2023/01/25 10:58:35;;;;;;;27.58;14.73;;;;;;;;;;5018009;28;20030;-78
2023/01/25 11:01:01;;;;;;;28.20;14.60;;;;;;;;;;5030354;28;20042;-79
2023/01/25 11:03:32;;;;;;;28.35;15.43;;;;;;;;;;5037778;28;20086;-79
2023/01/25 11:05:58;;;;;;;28.50;15.40;;;;;;;;;;5032166;28;20037;-78
2023/01/25 11:08:24;;;;;;;35.22;16.70;;;;;;;;;;5030480;28;20377;-79
2023/01/25 11:10:50;;;;;;;29.38;15.30;;;;;;;;;;5030591;28;20091;-79
2023/01/25 11:13:15;;;;;;;29.35;15.80;;;;;;;;;;5046722;28;20037;-80
2023/01/25 11:15:45;;;;;;;30.70;15.13;;;;;;;;;;5032191;28;20041;-80
2023/01/25 11:18:20;;;;;;;30.50;16.52;;;;;;;;;;5010137;28;20036;-78
2023/01/25 11:20:46;;;;;;;31.20;16.05;;;;;;;;;;5030174;28;20841;-79
2023/01/25 11:23:24;;;;;;;31.55;14.18;;;;;;;;;;5031899;28;20057;-79
2023/01/25 11:25:50;;;;;;;32.90;15.07;;;;;;;;;;5029996;28;20428;-79
2023/01/25 11:28:17;;;;;;;27.50;15.18;;;;;;;;;;5031592;28;20029;-79
2023/01/25 11:30:42;;;;;;;28.58;14.48;;;;;;;;;;5035060;28;20555;-79
2023/01/25 11:33:09;;;;;;;29.98;15.55;;;;;;;;;;5031342;28;20212;-81
2023/01/25 11:35:35;;;;;;;26.92;13.88;;;;;;;;;;5029928;28;20064;-79
2023/01/25 11:38:10;;;;;;;30.63;15.43;;;;;;;;;;5031469;28;20527;-79
2023/01/25 11:40:54;;;;;;;23.42;13.07;;;;;;;;;;5031199;28;20048;-79
2023/01/25 11:43:38;;;;;;;25.25;13.65;;;;;;;;;;5050359;28;20056;-80
2023/01/25 11:46:04;;;;;;;28.70;14.40;;;;;;;;;;5027592;28;20042;-80
2023/01/25 11:48:35;;;;;;;24.67;14.05;;;;;;;;;;5031324;28;20086;-79
2023/01/25 11:51:03;;;;;;;28.15;13.63;;;;;;;;;;5031277;28;20415;-80
2023/01/25 11:53:42;;;;;;;25.80;13.57;;;;;;;;;;5029776;28;20024;-79
2023/01/25 11:56:07;;;;;;;24.27;13.35;;;;;;;;;;5029790;28;20514;-78
2023/01/25 11:58:33;;;;;;;27.65;13.07;;;;;;;;;;5029931;28;20033;-80
2023/01/25 12:01:04;;;;;;;22.23;12.70;;;;;;;;;;5031220;28;20025;-79
2023/01/25 12:03:48;;;;;;;22.15;12.05;;;;;;;;;;5029764;28;20041;-79
2023/01/25 12:06:29;;;;;;;22.80;11.43;;;;;;;;;;5031213;28;20033;-78
2023/01/25 12:09:01;;;;;;;22.77;11.15;;;;;;;;;;5029809;28;20187;-80
2023/01/25 12:11:26;;;;;;;19.27;10.85;;;;;;;;;;5030698;28;20051;-79
2023/01/25 12:14:12;;;;;;;18.98;10.77;;;;;;;;;;5029133;28;20056;-79
2023/01/25 12:16:47;;;;;;;20.50;11.57;;;;;;;;;;5032329;28;20082;-80
2023/01/25 12:19:34;;;;;;;18.90;10.20;;;;;;;;;;5016602;28;20029;-78
2023/01/25 12:22:00;;;;;;;17.92;9.77;;;;;;;;;;5016703;28;20041;-80
2023/01/25 12:24:43;;;;;;;19.02;10.52;;;;;;;;;;5030563;28;20029;-79
2023/01/25 12:27:15;;;;;;;18.73;10.90;;;;;;;;;;5029085;28;20527;-78
2023/01/25 12:29:46;;;;;;;17.08;10.20;;;;;;;;;;5009009;28;20513;-80
2023/01/25 12:32:17;;;;;;;20.00;11.20;;;;;;;;;;5031559;28;20041;-79
2023/01/25 12:34:45;;;;;;;18.98;10.20;;;;;;;;;;5031242;28;20041;-79
2023/01/25 12:37:21;;;;;;;18.60;10.77;;;;;;;;;;5031355;28;20112;-79
2023/01/25 12:40:07;;;;;;;18.77;11.18;;;;;;;;;;5035740;28;20095;-79
2023/01/25 12:42:37;;;;;;;19.08;11.35;;;;;;;;;;5015427;28;20124;-79
2023/01/25 12:45:16;;;;;;;20.10;11.10;;;;;;;;;;5026206;28;20037;-80
2023/01/25 12:48:00;;;;;;;23.30;10.75;;;;;;;;;;5028946;28;20124;-80
2023/01/25 12:50:26;;;;;;;19.58;10.27;;;;;;;;;;5028767;28;20061;-80
2023/01/25 12:53:01;;;;;;;22.02;11.48;;;;;;;;;;5029084;28;20527;-79
2023/01/25 12:55:27;;;;;;;21.00;11.13;;;;;;;;;;5028678;28;20026;-79
2023/01/25 12:57:55;;;;;;;19.95;11.25;;;;;;;;;;5030087;28;20496;-79
2023/01/25 13:00:24;;;;;;;18.52;10.98;;;;;;;;;;5028912;28;20389;-79
2023/01/25 13:02:59;;;;;;;19.33;11.20;;;;;;;;;;5030045;28;20030;-78
2023/01/25 13:05:47;;;;;;;19.60;10.63;;;;;;;;;;5028508;28;20442;-80
2023/01/25 13:08:18;;;;;;;18.77;10.45;;;;;;;;;;5019640;28;20145;-79
2023/01/25 13:10:51;;;;;;;19.55;10.82;;;;;;;;;;5020116;28;20137;-79
2023/01/25 13:13:19;;;;;;;16.98;10.00;;;;;;;;;;5027942;28;20499;-81
2023/01/25 13:15:44;;;;;;;17.83;10.55;;;;;;;;;;5036873;28;20107;-79
2023/01/25 13:18:28;;;;;;;17.08;10.27;;;;;;;;;;5028749;28;20101;-79
2023/01/25 13:20:54;;;;;;;17.98;10.80;;;;;;;;;;5028423;28;20052;-79
2023/01/25 13:23:26;;;;;;;20.40;10.25;;;;;;;;;;5028697;28;20025;-80
2023/01/25 13:25:51;;;;;;;18.50;8.55;;;;;;;;;;5029544;28;20136;-81
2023/01/25 13:28:34;;;;;;;21.50;10.05;;;;;;;;;;5028595;28;20120;-78
2023/01/25 13:30:59;;;;;;;16.85;10.23;;;;;;;;;;5027895;28;20043;-80
2023/01/25 13:33:32;;;;;;;19.58;11.40;;;;;;;;;;5029853;28;20034;-79
2023/01/25 13:35:58;;;;;;;18.02;10.70;;;;;;;;;;5029418;28;20045;-79
2023/01/25 13:38:34;;;;;;;16.33;9.73;;;;;;;;;;5028989;28;20108;-80
2023/01/25 13:41:03;;;;;;;18.40;10.95;;;;;;;;;;5024855;28;20033;-79
2023/01/25 13:43:29;;;;;;;16.45;9.50;;;;;;;;;;5027158;28;20047;-80
2023/01/25 13:45:54;;;;;;;17.02;10.02;;;;;;;;;;5031099;28;20033;-79
2023/01/25 13:48:20;;;;;;;21.10;11.13;;;;;;;;;;5017193;28;20385;-79
2023/01/25 13:50:51;;;;;;;18.90;10.35;;;;;;;;;;5028331;28;20433;-78
2023/01/25 13:53:16;;;;;;;16.17;9.80;;;;;;;;;;5028159;28;20060;-79
2023/01/25 13:55:45;;;;;;;20.63;11.43;;;;;;;;;;5039718;28;20061;-79
2023/01/25 13:58:14;;;;;;;18.10;10.70;;;;;;;;;;5029139;28;20107;-79
2023/01/25 14:00:46;;;;;;;17.23;10.65;;;;;;;;;;5027746;28;20492;-79
2023/01/25 14:03:11;;;;;;;15.65;9.75;;;;;;;;;;5028092;28;20040;-81
2023/01/25 14:05:37;;;;;;;18.10;10.50;;;;;;;;;;5016011;28;20033;-79
2023/01/25 14:08:02;;;;;;;17.75;10.18;;;;;;;;;;5028449;28;20496;-78
2023/01/25 14:10:28;;;;;;;20.50;10.50;;;;;;;;;;5018214;28;20040;-78
2023/01/25 14:12:57;;;;;;;19.58;9.60;;;;;;;;;;5029758;28;20041;-78
2023/01/25 14:15:23;;;;;;;18.55;10.77;;;;;;;;;;5028289;28;20107;-80
2023/01/25 14:18:07;;;;;;;18.13;10.45;;;;;;;;;;5028868;28;20037;-79
2023/01/25 14:20:33;;;;;;;16.67;9.82;;;;;;;;;;5032752;28;20514;-79
2023/01/25 14:22:58;;;;;;;18.63;10.73;;;;;;;;;;5031525;28;20033;-79
2023/01/25 14:25:24;;;;;;;18.73;10.50;;;;;;;;;;5032700;28;20040;-81
2023/01/25 14:27:50;;;;;;;;;;;;;;;;;;5034598;28;20061;-80
2023/01/25 14:30:18;;;;;;;20.52;10.63;;;;;;;;;;5024001;28;20422;-79